Tiempo atmosférico en la estación meteorológica de Arico, Santa Cruz de Tenerife (418 m.)



Fecha
DESCASC
Temp. máxima en grados centígrados (hora)
DESCASC
Temp. mínima en grados centígrados (hora)
DESCASC
Temp. media en grados centígrados
DESCASC
Racha de viento máxima en m/sg (hora)
DESCASC
Velocidad máxima media en intervalos de 10 minutos(hora)
DESCASC
Precipitaciones diarias en mm
DESCASC
Precipitaciones de 00:00 a 06:00 en mm
DESCASC
Precipitaciones de 06:00 a 12:00 en mm
DESCASC
Precipitaciones de 12:00 a 18:00 en mm
DESCASC
Precipitaciones de 18:00 a 24:00 en mm
DESCASC
18-08-2019 31.8 (15:40) 21.1 (23:59) 26.4 10.28 (06:50) 6.11 (14:10) 0 0 0 0 0
17-08-2019 33.7 (13:40) 23.7 (00:00) 28.7 11.39 (14:30) 6.94 (04:30) 0 0 0 0 0
16-08-2019 33.4 (14:10) 19.7 (03:20) 26.6 12.22 (13:40) 8.33 (13:40) 0 0 0 0 0
15-08-2019 27.4 (11:40) 18.1 (00:00) 22.8 11.11 (10:50) 7.22 (13:20) 0 0 0 0 0
14-08-2019 26.3 (15:20) 17.5 (00:00) 21.9 13.06 (12:50) 7.22 (17:30) 0 0 0 0 0
13-08-2019 24.8 (15:50) 18.3 (00:00) 21.5 12.78 (10:50) 8.06 (13:50) 0 0 0 0 0
12-08-2019 25 (12:20) 20.4 (00:00) 22.7 16.11 (01:30) 10 (04:40) 0 0 0 0 0
11-08-2019 24.2 (14:40) 19.8 (00:00) 22 14.44 (13:50) 8.89 (16:50) 0 0 0 0 0
10-08-2019 27 (13:50) 18.8 (00:00) 22.9 11.39 (14:50) 7.78 (14:50) 0 0 0 0 0
09-08-2019 26.4 (15:50) 18 (00:00) 22.2 8.89 (12:20) 5.83 (12:20) 0 0 0 0 0
08-08-2019 27.1 (14:00) 17.2 (00:00) 22.2 6.94 (02:40) 4.17 (02:30) 0 0 0 0 0
07-08-2019 25.2 (14:20) 16.9 (00:00) 21.1 11.94 (14:50) 6.67 (13:10) 0 0 0 0 0
06-08-2019 27.6 (15:40) 17.2 (00:00) 22.4 11.11 (21:50) 6.11 (12:00) 0 0 0 0 0
05-08-2019 26.1 (13:20) 17.1 (00:00) 21.6 13.61 (15:40) 8.89 (15:40) 0 0 0 0 0
04-08-2019 25.4 (16:00) 16.3 (00:00) 20.8 13.06 (10:50) 8.06 (13:40) 0 0 0 0 0
03-08-2019 25.4 (15:10) 16.5 (00:00) 20.9 9.17 (15:20) 5.83 (16:50) 0 0 0 0 0
02-08-2019 24.4 (14:40) 15.9 (00:00) 20.1 12.22 (12:50) 7.5 (13:40) 0 0 0 0 0
01-08-2019 23.6 (14:00) 15.8 (00:00) 19.7 11.67 (13:50) 7.78 (13:50) 0 0 0 0 0
31-07-2019 24.8 (13:20) 16.5 (00:00) 20.6 13.06 (14:00) 8.33 (14:00) 0 0 0 0 0
30-07-2019 25 (16:00) 18.1 (00:00) 21.6 12.22 (15:10) 7.5 (15:10) 0 0 0 0 0
29-07-2019 25.6 (15:50) 18 (00:00) 21.8 13.33 (19:50) 8.33 (18:20) 0 0 0 0 0
28-07-2019 25.8 (13:30) 17.5 (00:00) 21.6 10 (13:50) 6.67 (13:50) 0 0 0 0 0
27-07-2019 23.8 (13:50) 17.7 (00:00) 20.8 12.22 (14:50) 7.78 (12:00) 0 0 0 0 0
26-07-2019 25.5 (10:40) 17.6 (00:00) 21.6 15 (15:50) 10 (16:40) 0 0 0 0 0
25-07-2019 28.9 (16:10) 17.5 (00:00) 23.2 11.11 (12:50) 8.06 (14:50) 0 0 0 0 0
24-07-2019 27.4 (15:50) 16.7 (00:00) 22.1 10 (12:40) 6.39 (12:40) 0 0 0 0 0
23-07-2019 24.9 (15:00) 15.6 (00:00) 20.3 11.11 (12:50) 6.94 (12:50) 0 0 0 0 0
22-07-2019 24.8 (15:40) 16.6 (00:00) 20.7 12.22 (12:50) 6.39 (12:20) 0 0 0 0 0
21-07-2019 24.1 (14:40) 17 (00:00) 20.6 12.5 (11:50) 8.06 (15:20) 0 0 0 0 0

Gráficas

Temp. máximas Temp. mínimas Temp. medias Precipitaciones Rachas de viento máximas Velocidades máximas media en intervalos de 10 minutos

Datos horarios

Fecha y hora oficial Temperatura (ºC) Velocidad del viento (km/h) Dirección del viento Racha (km/h) Dirección de racha Precipitación (mm) Presión (hPa) Tendencia (hPa) Humedad (%)
2019-08-19 23:00:00 19.4 14 Nordeste 22 Nordeste 0 -- -- 91
2019-08-19 22:00:00 19.8 11 Nordeste 21 Nordeste 0 -- -- 90
2019-08-19 21:00:00 20.5 12 Nordeste 18 Nordeste 0 -- -- 87
2019-08-19 20:00:00 22.6 10 Nordeste 18 Este 0 -- -- 77
2019-08-19 19:00:00 26.5 10 Este 19 Este 0 -- -- 55
2019-08-19 18:00:00 29 9 Este 19 Este 0 -- -- 47
2019-08-19 17:00:00 29.7 11 Nordeste 30 Este 0 -- -- 46
2019-08-19 16:00:00 31.8 15 Nordeste 29 Este 0 -- -- 36
2019-08-19 15:00:00 31.3 18 Nordeste 37 Este 0 -- -- 36
2019-08-19 14:00:00 30.5 19 Nordeste 32 Nordeste 0 -- -- 40
2019-08-19 13:00:00 29.4 14 Nordeste 22 Nordeste 0 -- -- 49
2019-08-19 12:00:00 25.8 14 Nordeste 24 Este 0 -- -- 65
2019-08-19 11:00:00 24.9 14 Nordeste 21 Este 0 -- -- 69
2019-08-19 10:00:00 23.5 9 Este 21 Nordeste 0 -- -- 75
2019-08-19 09:00:00 20.6 9 Este 17 Este 0 -- -- 86
2019-08-19 08:00:00 18.6 5 Este 14 Nordeste 0 -- -- 90
2019-08-19 07:00:00 18.5 7 Este 14 Este 0 -- -- 89
2019-08-19 06:00:00 19.1 6 Este 21 Nordeste 0 -- -- 81
2019-08-19 05:00:00 19.3 10 Nordeste 21 Nordeste 0 -- -- 75
2019-08-19 04:00:00 19.2 9 Norte 19 Norte 0 -- -- 70
2019-08-19 03:00:00 19 10 Nordeste 26 Nordeste 0 -- -- 93
2019-08-19 02:00:00 19.4 16 Nordeste 23 Nordeste 0 -- -- 91
2019-08-19 01:00:00 19.9 10 Nordeste 21 Este 0 -- -- 88
2019-08-19 00:00:00 21.1 5 Nordeste 18 Nordeste 0 -- -- 78
2019-08-18 23:00:00 24.3 13 Nordeste 21 Nordeste 0 -- -- 43
2019-08-18 22:00:00 24.8 11 Nordeste 22 Nordeste 0 -- -- 30
2019-08-18 21:00:00 24.5 5 Nordeste 16 Nordeste 0 -- -- 38
2019-08-18 20:00:00 26.1 13 Nordeste 23 Nordeste 0 -- -- 40
2019-08-18 19:00:00 27.7 12 Nordeste 22 Nordeste 0 -- -- 43
2019-08-18 18:00:00 28.7 8 Nordeste 23 Nordeste 0 -- -- 51
2019-08-18 17:00:00 29.8 18 Nordeste 34 Nordeste 0 -- -- 42
2019-08-18 16:00:00 31.2 22 Nordeste 35 Nordeste 0 -- -- 34
2019-08-18 15:00:00 29.9 17 Nordeste 32 Nordeste 0 -- -- 46
2019-08-18 14:00:00 31 21 Nordeste 36 Nordeste 0 -- -- 37
2019-08-18 13:00:00 30.7 20 Nordeste 33 Norte 0 -- -- 33
2019-08-18 12:00:00 29.9 18 Nordeste 31 Nordeste 0 -- -- 39
2019-08-18 11:00:00 28.3 12 Nordeste 22 Este 0 -- -- 49
2019-08-18 10:00:00 27 14 Nordeste 30 Nordeste 0 -- -- 51
2019-08-18 09:00:00 27 15 Nordeste 25 Nordeste 0 -- -- 29
2019-08-18 08:00:00 24 4 Este 30 Nordeste 0 -- -- 37
2019-08-18 07:00:00 26.3 18 Nordeste 37 Nordeste 0 -- -- 33
2019-08-18 06:00:00 24.8 9 Nordeste 24 Nordeste 0 -- -- 37
2019-08-18 05:00:00 25.2 16 Nordeste 30 Nordeste 0 -- -- 37
2019-08-18 04:00:00 24.5 18 Nordeste 27 Nordeste 0 -- -- 41
2019-08-18 03:00:00 22.7 10 Nordeste 17 Nordeste 0 -- -- 56
2019-08-18 02:00:00 23.6 10 Nordeste 30 Nordeste 0 -- -- 48
2019-08-18 01:00:00 23.7 15 Nordeste 24 Nordeste 0 -- -- 50
2019-08-18 00:00:00 24.8 10 Nordeste 26 Nordeste 0 -- -- 47
2019-08-17 23:00:00 25.5 14 Nordeste 22 Nordeste 0 -- -- 39
2019-08-17 22:00:00 25.3 8 Nordeste 26 Nordeste 0 -- -- 41
2019-08-17 21:00:00 26.7 12 Nordeste 31 Nordeste 0 -- -- 33
2019-08-17 20:00:00 27.7 16 Nordeste 40 Nordeste 0 -- -- 35
2019-08-17 19:00:00 28.7 24 Nordeste 38 Nordeste 0 -- -- 33
2019-08-17 18:00:00 30.8 21 Nordeste 35 Nordeste 0 -- -- 31
2019-08-17 17:00:00 32.1 21 Nordeste 33 Este 0 -- -- 30
2019-08-17 16:00:00 32.7 19 Nordeste 38 Nordeste 0 -- -- 31
2019-08-17 15:00:00 32.7 23 Nordeste 41 Nordeste 0 -- -- 29
2019-08-17 14:00:00 33.2 24 Nordeste 38 Este 0 -- -- 28
2019-08-17 13:00:00 32.9 18 Este 30 Este 0 -- -- 32
2019-08-17 12:00:00 31.1 14 Nordeste 23 Nordeste 0 -- -- 40
2019-08-17 11:00:00 30 14 Este 28 Este 0 -- -- 40
2019-08-17 10:00:00 28.4 12 Nordeste 20 Nordeste 0 -- -- 43
2019-08-17 09:00:00 26.3 6 Nordeste 11 Nordeste 0 -- -- 45
2019-08-17 08:00:00 24.8 7 Nordeste 24 Nordeste 0 -- -- 48
2019-08-17 07:00:00 27.4 9 Nordeste 27 Nordeste 0 -- -- 31
2019-08-17 06:00:00 26.8 15 Nordeste 39 Nordeste 0 -- -- 35
2019-08-17 05:00:00 27.6 22 Nordeste 37 Nordeste 0 -- -- 34
2019-08-17 04:00:00 26.5 17 Nordeste 31 Nordeste 0 -- -- 38
2019-08-17 03:00:00 25.5 12 Nordeste 23 Nordeste 0 -- -- 39
2019-08-17 02:00:00 25.3 13 Nordeste 24 Nordeste 0 -- -- 41
2019-08-17 01:00:00 25 7 Norte 21 Nordeste 0 -- -- 43
2019-08-17 00:00:00 23.7 5 Nordeste 23 Nordeste 0 -- -- 57
2019-08-16 23:00:00 24.5 15 Nordeste 36 Nordeste 0 -- -- 54
2019-08-16 22:00:00 23.8 18 Nordeste 27 Nordeste 0 -- -- 62
2019-08-16 21:00:00 24.7 13 Nordeste 24 Este 0 -- -- 55
2019-08-16 20:00:00 26.5 14 Nordeste 21 Nordeste 0 -- -- 47
2019-08-16 19:00:00 28 14 Nordeste 27 Este 0 -- -- 45
2019-08-16 18:00:00 29.6 17 Nordeste 33 Nordeste 0 -- -- 39
2019-08-16 17:00:00 28.6 26 Nordeste 42 Este 0 -- -- 40
2019-08-16 16:00:00 31.1 25 Nordeste 33 Nordeste 0 -- -- 35
2019-08-16 15:00:00 32.4 24 Nordeste 40 Este 0 -- -- 29
2019-08-16 14:00:00 33 24 Nordeste 44 Nordeste 0 -- -- 28
2019-08-16 13:00:00 31.7 24 Nordeste 41 Nordeste 0 -- -- 29
2019-08-16 12:00:00 31.7 26 Nordeste 40 Nordeste 0 -- -- 26
2019-08-16 11:00:00 29.8 19 Nordeste 33 Este 0 -- -- 30
2019-08-16 10:00:00 27.1 18 Nordeste 28 Nordeste 0 -- -- 36
2019-08-16 09:00:00 24.6 9 Norte 19 Nordeste 0 -- -- 39
2019-08-16 08:00:00 21.3 10 Nordeste 20 Nordeste 0 -- -- 59
2019-08-16 07:00:00 20 6 Norte 17 Nordeste 0 -- -- 63
2019-08-16 06:00:00 20.1 5 Norte 17 Norte 0 -- -- 61
2019-08-16 05:00:00 20 9 Nordeste 17 Nordeste 0 -- -- 75
2019-08-16 04:00:00 19.8 10 Nordeste 18 Nordeste 0 -- -- 67
2019-08-16 03:00:00 20.2 5 Nordeste 11 Nordeste 0 -- -- 74
2019-08-16 02:00:00 22.1 6 Nordeste 18 Nordeste 0 -- -- 61
2019-08-16 01:00:00 21.9 10 Nordeste 17 Nordeste 0 -- -- 54
2019-08-16 00:00:00 22.9 11 Nordeste 32 Nordeste 0 -- -- 51
2019-08-15 23:00:00 22.7 13 Nordeste 23 Nordeste 0 -- -- 49
2019-08-15 22:00:00 21.8 9 Nordeste 19 Nordeste 0 -- -- 67
2019-08-15 21:00:00 20.7 8 Nordeste 21 Nordeste 0 -- -- 83
2019-08-15 20:00:00 21.8 17 Nordeste 27 Nordeste 0 -- -- 79
2019-08-15 19:00:00 23.4 18 Nordeste 28 Nordeste 0 -- -- 73
2019-08-15 18:00:00 24.7 20 Nordeste 33 Este 0 -- -- 67
2019-08-15 17:00:00 25.6 19 Nordeste 32 Nordeste 0 -- -- 64
2019-08-15 16:00:00 26.5 19 Nordeste 32 Este 0 -- -- 61
2019-08-15 15:00:00 25.7 24 Nordeste 37 Este 0 -- -- 63
2019-08-15 14:00:00 26 23 Nordeste 40 Este 0 -- -- 60
2019-08-15 13:00:00 26.4 24 Nordeste 32 Este 0 -- -- 57
2019-08-15 12:00:00 26.8 19 Nordeste 31 Este 0 -- -- 52
2019-08-15 11:00:00 26.1 19 Nordeste 40 Este 0 -- -- 45
2019-08-15 10:00:00 24.9 15 Nordeste 25 Este 0 -- -- 44
2019-08-15 09:00:00 23.5 11 Nordeste 22 Nordeste 0 -- -- 37
2019-08-15 08:00:00 19.8 9 Norte 19 Nordeste 0 -- -- 38
2019-08-15 07:00:00 19.2 9 Norte 17 Nordeste 0 -- -- 42
2019-08-15 06:00:00 18.8 7 Norte 13 Nordeste 0 -- -- 51
2019-08-15 05:00:00 18.6 7 Norte 14 Nordeste 0 -- -- 46
2019-08-15 04:00:00 18.1 8 Norte 13 Norte 0 -- -- 53
2019-08-15 03:00:00 18.2 9 Norte 14 Norte 0 -- -- 68
2019-08-15 02:00:00 18.4 8 Nordeste 12 Nordeste 0 -- -- 64
2019-08-15 01:00:00 18.2 4 Noroeste 10 Oeste 0 -- -- 71
2019-08-15 00:00:00 18.4 7 Norte 13 Norte 0 -- -- 69
2019-08-14 23:00:00 18.7 6 Norte 10 Nordeste 0 -- -- 69
2019-08-14 22:00:00 19.3 5 Nordeste 13 Nordeste 0 -- -- 78
2019-08-14 21:00:00 20.5 8 Nordeste 17 Nordeste 0 -- -- 72
2019-08-14 20:00:00 22.5 13 Nordeste 28 Nordeste 0 -- -- 58
2019-08-14 19:00:00 24.5 18 Nordeste 43 Nordeste 0 -- -- 45
2019-08-14 18:00:00 25.4 23 Nordeste 38 Nordeste 0 -- -- 43
2019-08-14 17:00:00 25.9 22 Nordeste 39 Nordeste 0 -- -- 41
2019-08-14 16:00:00 25.7 23 Nordeste 35 Nordeste 0 -- -- 51
2019-08-14 15:00:00 26 21 Nordeste 38 Este 0 -- -- 56
2019-08-14 14:00:00 25.1 23 Nordeste 36 Este 0 -- -- 59
2019-08-14 13:00:00 24.6 23 Nordeste 47 Este 0 -- -- 61
2019-08-14 12:00:00 24.5 19 Nordeste 31 Este 0 -- -- 62
2019-08-14 11:00:00 23.7 17 Nordeste 27 Este 0 -- -- 64
2019-08-14 10:00:00 22.7 17 Nordeste 26 Nordeste 0 -- -- 61
2019-08-14 09:00:00 21.1 12 Nordeste 18 Nordeste 0 -- -- 61
2019-08-14 08:00:00 18.4 6 Nordeste 13 Nordeste 0 -- -- 56
2019-08-14 07:00:00 17.9 8 Nordeste 14 Este 0 -- -- 56
2019-08-14 06:00:00 18 7 Nordeste 15 Nordeste 0 -- -- 50
2019-08-14 05:00:00 18 8 Norte 14 Nordeste 0 -- -- 49
2019-08-14 04:00:00 17.9 10 Nordeste 18 Nordeste 0 -- -- 65
2019-08-14 03:00:00 18.2 14 Nordeste 28 Nordeste 0 -- -- 71
2019-08-14 02:00:00 17.8 13 Nordeste 24 Nordeste 0 -- -- 75
2019-08-14 01:00:00 17.9 2 Noroeste 8 Noroeste 0 -- -- 71
2019-08-14 00:00:00 18.3 3 Sur 9 Noroeste 0 -- -- 67
2019-08-13 23:00:00 18.7 2 Oeste 6 Sudeste 0 -- -- 68
2019-08-13 22:00:00 19.4 4 Nordeste 17 Nordeste 0 -- -- 65
2019-08-13 21:00:00 20.3 10 Nordeste 29 Nordeste 0 -- -- 61
2019-08-13 20:00:00 21.3 21 Nordeste 39 Nordeste 0 -- -- 59
2019-08-13 19:00:00 23 23 Nordeste 44 Nordeste 0 -- -- 55
2019-08-13 18:00:00 23.5 23 Nordeste 40 Nordeste 0 -- -- 63
2019-08-13 17:00:00 23.6 28 Nordeste 41 Nordeste 0 -- -- 62
2019-08-13 16:00:00 24.5 27 Nordeste 42 Este 0 -- -- 60
2019-08-13 15:00:00 24.5 27 Nordeste 44 Nordeste 0 -- -- 61
2019-08-13 14:00:00 24.4 26 Nordeste 44 Este 0 -- -- 60
2019-08-13 13:00:00 24.2 25 Nordeste 41 Este 0 -- -- 62
2019-08-13 12:00:00 24 23 Nordeste 45 Nordeste 0 -- -- 63
2019-08-13 11:00:00 23.1 27 Nordeste 46 Nordeste 0 -- -- 63
2019-08-13 10:00:00 22.6 23 Nordeste 40 Este 0 -- -- 63
2019-08-13 09:00:00 21.2 18 Nordeste 32 Nordeste 0 -- -- 66
2019-08-13 08:00:00 19.4 20 Nordeste 33 Nordeste 0 -- -- 70
2019-08-13 07:00:00 19.1 12 Nordeste 27 Nordeste 0 -- -- 65
2019-08-13 06:00:00 19.5 17 Nordeste 27 Nordeste 0 -- -- 63
2019-08-13 05:00:00 19.9 13 Nordeste 27 Nordeste 0 -- -- 59
2019-08-13 04:00:00 19.7 10 Nordeste 22 Nordeste 0 -- -- 54
2019-08-13 03:00:00 19.9 10 Nordeste 21 Norte 0 -- -- 52
2019-08-13 02:00:00 20.3 10 Nordeste 16 Norte 0 -- -- 43
2019-08-13 01:00:00 20.6 12 Nordeste 25 Nordeste 0 -- -- 44
2019-08-13 00:00:00 20.4 14 Nordeste 35 Nordeste 0 -- -- 52
2019-08-12 23:00:00 20.7 21 Nordeste 32 Nordeste 0 -- -- 53
2019-08-12 22:00:00 21.1 20 Nordeste 35 Nordeste 0 -- -- 45
2019-08-12 21:00:00 21.2 23 Nordeste 35 Nordeste 0 -- -- 56
2019-08-12 20:00:00 22 22 Nordeste 39 Nordeste 0 -- -- 60
2019-08-12 19:00:00 23.4 22 Nordeste 40 Nordeste 0 -- -- 60
2019-08-12 18:00:00 24.1 24 Nordeste 44 Nordeste 0 -- -- 61
2019-08-12 17:00:00 24.1 28 Nordeste 48 Nordeste 0 -- -- 64
2019-08-12 16:00:00 24.6 28 Nordeste 48 Nordeste 0 -- -- 63
2019-08-12 15:00:00 24.4 34 Nordeste 50 Este 0 -- -- 64
2019-08-12 14:00:00 24.2 32 Nordeste 54 Nordeste 0 -- -- 66
2019-08-12 13:00:00 24.6 30 Nordeste 49 Nordeste 0 -- -- 65
2019-08-12 12:00:00 24.3 27 Nordeste 45 Nordeste 0 -- -- 66
2019-08-12 11:00:00 24 24 Nordeste 42 Nordeste 0 -- -- 63
2019-08-12 10:00:00 23 23 Nordeste 47 Nordeste 0 -- -- 67
2019-08-12 09:00:00 23.5 25 Nordeste 58 Nordeste 0 -- -- 50
2019-08-12 08:00:00 22.8 33 Nordeste 56 Nordeste 0 -- -- 45
2019-08-12 07:00:00 22.6 35 Nordeste 52 Nordeste 0 -- -- 46
2019-08-12 06:00:00 23.4 34 Nordeste 58 Nordeste 0 -- -- 39
2019-08-12 05:00:00 22.4 28 Nordeste 55 Nordeste 0 -- -- 44
2019-08-12 04:00:00 22 28 Nordeste 46 Nordeste 0 -- -- 40
2019-08-12 03:00:00 21.9 24 Nordeste 45 Nordeste 0 -- -- 42
2019-08-12 02:00:00 22.7 32 Nordeste 58 Nordeste 0 -- -- 33
2019-08-12 01:00:00 22.4 35 Nordeste 53 Nordeste 0 -- -- 37
2019-08-12 00:00:00 21.3 27 Nordeste 49 Nordeste 0 -- -- 53
2019-08-11 23:00:00 20.1 20 Nordeste 33 Nordeste 0 -- -- 68
2019-08-11 22:00:00 19.9 14 Nordeste 25 Nordeste 0 -- -- 73
2019-08-11 21:00:00 20.1 17 Nordeste 29 Nordeste 0 -- -- 78
2019-08-11 20:00:00 21 24 Nordeste 46 Nordeste 0 -- -- 74
2019-08-11 19:00:00 22.5 30 Nordeste 46 Nordeste 0 -- -- 66
2019-08-11 18:00:00 23.2 28 Nordeste 45 Nordeste 0 -- -- 69
2019-08-11 17:00:00 23.6 29 Nordeste 46 Nordeste 0 -- -- 67
2019-08-11 16:00:00 23.4 29 Nordeste 52 Nordeste 0 -- -- 72
2019-08-11 15:00:00 24.2 26 Nordeste 42 Nordeste 0 -- -- 73
2019-08-11 14:00:00 23.8 27 Nordeste 52 Nordeste 0 -- -- 75
2019-08-11 13:00:00 22.8 25 Nordeste 44 Nordeste 0 -- -- 80
2019-08-11 12:00:00 21.2 21 Nordeste 40 Nordeste 0 -- -- 89
2019-08-11 11:00:00 20.7 23 Nordeste 38 Nordeste 0 -- -- 92
2019-08-11 10:00:00 20.7 19 Nordeste 35 Nordeste 0 -- -- 92
2019-08-11 09:00:00 20.5 21 Nordeste 37 Nordeste 0 -- -- 94
2019-08-11 08:00:00 20.8 19 Nordeste 35 Nordeste 0 -- -- 87
2019-08-11 07:00:00 20.3 8 Nordeste 30 Nordeste 0 -- -- 90
2019-08-11 06:00:00 20.2 14 Nordeste 35 Nordeste 0 -- -- 89
2019-08-11 05:00:00 20.3 17 Nordeste 31 Nordeste 0 -- -- 91
2019-08-11 04:00:00 19.8 10 Nordeste 33 Nordeste 0 -- -- 88
2019-08-11 03:00:00 20.2 19 Nordeste 32 Nordeste 0 -- -- 89
2019-08-11 02:00:00 20 18 Nordeste 33 Nordeste 0 -- -- 91
2019-08-11 01:00:00 20.4 20 Nordeste 32 Nordeste 0 -- -- 89
2019-08-11 00:00:00 20.3 6 Nordeste 16 Nordeste 0 -- -- 86
2019-08-10 23:00:00 20.6 8 Nordeste 13 Este 0 -- -- 84
2019-08-10 22:00:00 21 8 Nordeste 13 Nordeste 0 -- -- 85
2019-08-10 21:00:00 21.8 8 Nordeste 21 Nordeste 0 -- -- 80
2019-08-10 20:00:00 22.9 13 Nordeste 24 Nordeste 0 -- -- 77
2019-08-10 19:00:00 23.9 14 Nordeste 31 Nordeste 0 -- -- 74
2019-08-10 18:00:00 24.7 19 Nordeste 33 Este 0 -- -- 73
2019-08-10 17:00:00 25.1 25 Nordeste 39 Este 0 -- -- 69
2019-08-10 16:00:00 26.1 23 Nordeste 40 Nordeste 0 -- -- 65
2019-08-10 15:00:00 26.2 25 Nordeste 41 Este 0 -- -- 63
2019-08-10 14:00:00 26.9 23 Nordeste 39 Este 0 -- -- 61
2019-08-10 13:00:00 26.5 22 Nordeste 34 Este 0 -- -- 63
2019-08-10 12:00:00 25.6 21 Nordeste 32 Este 0 -- -- 67
2019-08-10 11:00:00 25.7 12 Nordeste 24 Nordeste 0 -- -- 65
2019-08-10 10:00:00 24 10 Nordeste 16 Nordeste 0 -- -- 73
2019-08-10 09:00:00 21.9 7 Nordeste 13 Nordeste 0 -- -- 76
2019-08-10 08:00:00 19.3 6 Norte 13 Nordeste 0 -- -- 83
2019-08-10 07:00:00 18.9 6 Noroeste 9 Norte 0 -- -- 85
2019-08-10 06:00:00 19 5 Norte 12 Norte 0 -- -- 79
2019-08-10 05:00:00 19 7 Norte 14 Norte 0 -- -- 82
2019-08-10 04:00:00 19.1 9 Nordeste 15 Oeste 0 -- -- 86
2019-08-10 03:00:00 19.1 10 Nordeste 17 Nordeste 0 -- -- 90
2019-08-10 02:00:00 19.3 9 Nordeste 16 Nordeste 0 -- -- 93
2019-08-10 01:00:00 19.3 8 Nordeste 12 Nordeste 0 -- -- 94
2019-08-10 00:00:00 19.5 6 Nordeste 13 Nordeste 0 -- -- 93
2019-08-09 23:00:00 19.8 5 Nordeste 9 Nordeste 0 -- -- 91
2019-08-09 22:00:00 20 5 Norte 11 Este 0 -- -- 91
2019-08-09 21:00:00 20.7 8 Nordeste 13 Este 0 -- -- 86
2019-08-09 20:00:00 22.1 11 Nordeste 17 Este 0 -- -- 81
2019-08-09 19:00:00 24.1 9 Nordeste 21 Este 0 -- -- 72
2019-08-09 18:00:00 25.4 13 Este 20 Nordeste 0 -- -- 67
2019-08-09 17:00:00 25.9 11 Nordeste 23 Nordeste 0 -- -- 65
2019-08-09 16:00:00 26.3 15 Nordeste 26 Este 0 -- -- 65
2019-08-09 15:00:00 25.8 17 Este 26 Este 0 -- -- 67
2019-08-09 14:00:00 25.6 16 Nordeste 27 Este 0 -- -- 68
2019-08-09 13:00:00 25.3 17 Nordeste 32 Nordeste 0 -- -- 68
2019-08-09 12:00:00 24.9 18 Nordeste 31 Nordeste 0 -- -- 68
2019-08-09 11:00:00 25.9 10 Este 18 Nordeste 0 -- -- 54
2019-08-09 10:00:00 22.4 13 Nordeste 19 Nordeste 0 -- -- 79
2019-08-09 09:00:00 20 11 Nordeste 16 Nordeste 0 -- -- 88
2019-08-09 08:00:00 18 5 Norte 14 Nordeste 0 -- -- 93
2019-08-09 07:00:00 18.4 7 Norte 15 Nordeste 0 -- -- 92
2019-08-09 06:00:00 18.7 6 Nordeste 15 Nordeste 0 -- -- 92
2019-08-09 05:00:00 18.8 9 Nordeste 13 Norte 0 -- -- 93
2019-08-09 04:00:00 18.9 5 Norte 14 Nordeste 0 -- -- 92
2019-08-09 03:00:00 18.9 6 Nordeste 13 Nordeste 0 -- -- 93
2019-08-09 02:00:00 19.1 9 Nordeste 19 Nordeste 0 -- -- 92
2019-08-09 01:00:00 19.6 11 Nordeste 16 Nordeste 0 -- -- 91
2019-08-09 00:00:00 19.7 10 Nordeste 15 Nordeste 0 -- -- 91
2019-08-08 23:00:00 19.7 10 Nordeste 20 Nordeste 0 -- -- 90
2019-08-08 22:00:00 19.7 11 Nordeste 17 Nordeste 0 -- -- 90
2019-08-08 21:00:00 20.1 10 Nordeste 18 Nordeste 0 -- -- 87
2019-08-08 20:00:00 21.5 11 Nordeste 18 Este 0 -- -- 81
2019-08-08 19:00:00 23 13 Nordeste 22 Este 0 -- -- 75
2019-08-08 18:00:00 24.1 13 Nordeste 23 Nordeste 0 -- -- 71
2019-08-08 17:00:00 25 14 Este 24 Este 0 -- -- 67
2019-08-08 16:00:00 26.1 13 Nordeste 23 Este 0 -- -- 62
2019-08-08 15:00:00 26.6 14 Nordeste 23 Nordeste 0 -- -- 61
2019-08-08 14:00:00 27.1 12 Este 21 Este 0 -- -- 60
2019-08-08 13:00:00 25.2 14 Nordeste 22 Este 0 -- -- 66
2019-08-08 12:00:00 24.5 15 Nordeste 22 Este 0 -- -- 68
2019-08-08 11:00:00 23.3 13 Nordeste 21 Nordeste 0 -- -- 73
2019-08-08 10:00:00 21.8 13 Nordeste 19 Este 0 -- -- 79
2019-08-08 09:00:00 19.8 11 Nordeste 15 Nordeste 0 -- -- 83
2019-08-08 08:00:00 17.8 8 Norte 14 Norte 0 -- -- 91
2019-08-08 07:00:00 17.3 9 Norte 18 Norte 0 -- -- 90
2019-08-08 06:00:00 17.6 11 Norte 17 Norte 0 -- -- 91
2019-08-08 05:00:00 17.4 6 Norte 10 Norte 0 -- -- 86
2019-08-08 04:00:00 17.3 6 Noroeste 14 Nordeste 0 -- -- 86
2019-08-08 03:00:00 18.5 12 Nordeste 25 Nordeste 0 -- -- 91
2019-08-08 02:00:00 18.3 11 Nordeste 21 Nordeste 0 -- -- 93
2019-08-08 01:00:00 18.3 12 Nordeste 20 Nordeste 0 -- -- 92
2019-08-08 00:00:00 18.4 8 Nordeste 18 Nordeste 0 -- -- 90
2019-08-07 23:00:00 18.7 10 Nordeste 17 Nordeste 0 -- -- 90
2019-08-07 22:00:00 19.1 10 Nordeste 22 Nordeste 0 -- -- 89
2019-08-07 21:00:00 19.7 11 Nordeste 25 Nordeste 0 -- -- 86
2019-08-07 20:00:00 20.8 16 Nordeste 29 Nordeste 0 -- -- 82
2019-08-07 19:00:00 21.6 21 Nordeste 31 Nordeste 0 -- -- 78
2019-08-07 18:00:00 23.3 21 Nordeste 33 Este 0 -- -- 72
2019-08-07 17:00:00 24.8 19 Nordeste 35 Nordeste 0 -- -- 65
2019-08-07 16:00:00 24.6 24 Nordeste 40 Nordeste 0 -- -- 66
2019-08-07 15:00:00 25.2 22 Nordeste 43 Este 0 -- -- 62
2019-08-07 14:00:00 24.9 21 Nordeste 37 Norte 0 -- -- 66
2019-08-07 13:00:00 24.3 24 Nordeste 41 Este 0 -- -- 66
2019-08-07 12:00:00 24.1 19 Nordeste 31 Nordeste 0 -- -- 70
2019-08-07 11:00:00 22 17 Nordeste 31 Este 0 -- -- 78
2019-08-07 10:00:00 22.4 14 Nordeste 22 Nordeste 0 -- -- 76
2019-08-07 09:00:00 20.8 15 Nordeste 23 Nordeste 0 -- -- 73
2019-08-07 08:00:00 17.4 8 Norte 14 Noroeste 0 -- -- 73
2019-08-07 07:00:00 17.2 7 Noroeste 16 Norte 0 -- -- 65
2019-08-07 06:00:00 17.9 12 Norte 19 Nordeste 0 -- -- 74
2019-08-07 05:00:00 18.1 9 Norte 24 Nordeste 0 -- -- 79
2019-08-07 04:00:00 18.1 12 Nordeste 21 Nordeste 0 -- -- 77
2019-08-07 03:00:00 18.8 14 Nordeste 27 Nordeste -- -- -- 81
2019-08-07 02:00:00 18.7 10 Nordeste 32 Nordeste 0 -- -- 73
2019-08-07 01:00:00 19.2 18 Nordeste 37 Nordeste 0 -- -- 75
2019-08-07 00:00:00 19.3 10 Nordeste 32 Nordeste 0 -- -- 81
2019-08-06 23:00:00 19.6 17 Nordeste 28 Nordeste 0 -- -- 79
2019-08-06 22:00:00 20.1 17 Nordeste 40 Nordeste 0 -- -- 73
2019-08-06 21:00:00 20.1 13 Nordeste 30 Nordeste 0 -- -- 75
2019-08-06 20:00:00 21.3 20 Nordeste 35 Nordeste 0 -- -- 74
2019-08-06 19:00:00 23.1 20 Nordeste 32 Este 0 -- -- 67
2019-08-06 18:00:00 24.8 18 Nordeste 32 Este 0 -- -- 65
2019-08-06 17:00:00 26.3 18 Este 35 Nordeste 0 -- -- 56
2019-08-06 16:00:00 27.3 19 Nordeste 30 Nordeste 0 -- -- 50
2019-08-06 15:00:00 26.9 14 Este 28 Este 0 -- -- 56
2019-08-06 14:00:00 26.1 18 Este 32 Este 0 -- -- 58
2019-08-06 13:00:00 25.1 18 Nordeste 33 Este 0 -- -- 63
2019-08-06 12:00:00 24.5 22 Nordeste 34 Nordeste 0 -- -- 64
2019-08-06 11:00:00 23.3 20 Nordeste 37 Este 0 -- -- 69
2019-08-06 10:00:00 22.1 16 Este 32 Nordeste 0 -- -- 70
2019-08-06 09:00:00 20.6 12 Nordeste 19 Nordeste 0 -- -- 77
2019-08-06 08:00:00 18.2 9 Norte 19 Norte 0 -- -- 81
2019-08-06 07:00:00 17.4 8 Norte 14 Nordeste 0 -- -- 78
2019-08-06 06:00:00 17.7 8 Nordeste 18 Nordeste 0 -- -- 79
2019-08-06 05:00:00 18 8 Norte 22 Nordeste 0 -- -- 78
2019-08-06 04:00:00 18.8 9 Nordeste 28 Nordeste 0 -- -- 77
2019-08-06 03:00:00 18.9 10 Nordeste 25 Nordeste 0 -- -- 81
2019-08-06 02:00:00 19.1 12 Nordeste 23 Nordeste 0 -- -- 75
2019-08-06 01:00:00 18.8 6 Norte 13 Nordeste 0 -- -- 73
2019-08-06 00:00:00 19.7 7 Nordeste 32 Nordeste 0 -- -- 73
2019-08-05 23:00:00 20 14 Nordeste 33 Nordeste 0 -- -- 74
2019-08-05 22:00:00 20.5 17 Nordeste 28 Nordeste 0 -- -- 72
2019-08-05 21:00:00 21 15 Nordeste 27 Este 0 -- -- 68
2019-08-05 20:00:00 22.3 13 Nordeste 32 Nordeste 0 -- -- 69
2019-08-05 19:00:00 23 20 Nordeste 35 Este 0 -- -- 70
2019-08-05 18:00:00 24.3 21 Nordeste 36 Nordeste 0 -- -- 66
2019-08-05 17:00:00 24.2 24 Nordeste 45 Nordeste 0 -- -- 65
2019-08-05 16:00:00 24.2 29 Nordeste 49 Nordeste 0 -- -- 64
2019-08-05 15:00:00 25.1 26 Nordeste 43 Este 0 -- -- 61
2019-08-05 14:00:00 25.7 22 Nordeste 35 Nordeste 0 -- -- 60
2019-08-05 13:00:00 25.5 21 Nordeste 33 Nordeste 0 -- -- 58
2019-08-05 12:00:00 24.8 20 Nordeste 32 Nordeste 0 -- -- 62
2019-08-05 11:00:00 23.4 18 Nordeste 29 Nordeste 0 -- -- 70
2019-08-05 10:00:00 22.9 18 Este 27 Nordeste 0 -- -- 70
2019-08-05 09:00:00 21.4 10 Este 18 Nordeste 0 -- -- 80
2019-08-05 08:00:00 18.1 8 Noroeste 15 Oeste 0 -- -- 68
2019-08-05 07:00:00 17.2 9 Oeste 14 Oeste 0 -- -- 75
2019-08-05 06:00:00 17.5 3 Sudoeste 14 Oeste 0 -- -- 73
2019-08-05 05:00:00 17.6 6 Noroeste 14 Norte 0 -- -- 68
2019-08-05 04:00:00 18 9 Noroeste 19 Norte 0 -- -- 75
2019-08-05 03:00:00 18.1 7 Norte 19 Nordeste 0 -- -- 79
2019-08-05 02:00:00 18.5 10 Nordeste 24 Nordeste 0 -- -- 82
2019-08-05 01:00:00 19 12 Nordeste 26 Este 0 -- -- 81
2019-08-05 00:00:00 18.7 9 Nordeste 17 Nordeste 0 -- -- 75
2019-08-04 23:00:00 19 9 Nordeste 26 Nordeste 0 -- -- 78
2019-08-04 22:00:00 19.6 15 Nordeste 33 Nordeste 0 -- -- 80
2019-08-04 21:00:00 20.1 17 Nordeste 31 Nordeste 0 -- -- 77
2019-08-04 20:00:00 21.3 23 Nordeste 46 Nordeste 0 -- -- 73
2019-08-04 19:00:00 22.6 25 Nordeste 41 Este 0 -- -- 70
2019-08-04 18:00:00 23.1 21 Nordeste 39 Este 0 -- -- 71
2019-08-04 17:00:00 24.3 22 Nordeste 38 Nordeste 0 -- -- 68
2019-08-04 16:00:00 25.4 23 Nordeste 41 Nordeste 0 -- -- 62
2019-08-04 15:00:00 24.8 26 Nordeste 41 Este 0 -- -- 62
2019-08-04 14:00:00 24.6 26 Nordeste 43 Este 0 -- -- 60
2019-08-04 13:00:00 24.6 25 Nordeste 41 Este 0 -- -- 57
2019-08-04 12:00:00 23.9 22 Nordeste 39 Nordeste 0 -- -- 60
2019-08-04 11:00:00 23 21 Nordeste 47 Nordeste 0 -- -- 66
2019-08-04 10:00:00 21.9 23 Nordeste 40 Nordeste 0 -- -- 64
2019-08-04 09:00:00 20.5 15 Nordeste 24 Norte 0 -- -- 68
2019-08-04 08:00:00 17.5 8 Norte 17 Nordeste 0 -- -- 73
2019-08-04 07:00:00 16.3 7 Norte 15 Nordeste 0 -- -- 75
2019-08-04 06:00:00 16.4 6 Norte 11 Norte 0 -- -- 73
2019-08-04 05:00:00 16.6 4 Noroeste 22 Nordeste 0 -- -- 77
2019-08-04 04:00:00 16.7 6 Noroeste 15 Nordeste 0 -- -- 76
2019-08-04 03:00:00 17.2 11 Nordeste 22 Nordeste 0 -- -- 77
2019-08-04 02:00:00 17.3 10 Nordeste 16 Nordeste 0 -- -- 75
2019-08-04 01:00:00 17.6 6 Norte 12 Nordeste 0 -- -- 73
2019-08-04 00:00:00 18 6 Noroeste 7 Noroeste 0 -- -- 73
2019-08-03 23:00:00 18.7 2 Sudoeste 9 Sudeste 0 -- -- 70
2019-08-03 22:00:00 19.5 4 Sudeste 14 Sudoeste 0 -- -- 67
2019-08-03 21:00:00 20.3 12 Sudoeste 17 Sudoeste 0 -- -- 68
2019-08-03 20:00:00 21.6 9 Este 20 Este 0 -- -- 67
2019-08-03 19:00:00 23.2 11 Este 26 Este 0 -- -- 65
2019-08-03 18:00:00 23.1 18 Este 32 Este 0 -- -- 67
2019-08-03 17:00:00 24.3 19 Este 32 Nordeste 0 -- -- 62
2019-08-03 16:00:00 24.9 20 Este 33 Nordeste 0 -- -- 61
2019-08-03 15:00:00 25.2 17 Este 30 Este 0 -- -- 59
2019-08-03 14:00:00 24.5 18 Nordeste 31 Este 0 -- -- 61
2019-08-03 13:00:00 24.1 19 Este 31 Nordeste 0 -- -- 62
2019-08-03 12:00:00 23.8 17 Nordeste 30 Este 0 -- -- 64
2019-08-03 11:00:00 22.8 18 Nordeste 28 Nordeste 0 -- -- 67
2019-08-03 10:00:00 21.6 14 Nordeste 25 Nordeste 0 -- -- 73
2019-08-03 09:00:00 19.7 11 Nordeste 18 Nordeste 0 -- -- 78
2019-08-03 08:00:00 17.1 6 Noroeste 14 Noroeste 0 -- -- 80
2019-08-03 07:00:00 16.9 7 Norte 19 Nordeste 0 -- -- 82
2019-08-03 06:00:00 17.2 8 Nordeste 22 Norte 0 -- -- 83
2019-08-03 05:00:00 17.4 14 Nordeste 21 Nordeste 0 -- -- 86
2019-08-03 04:00:00 17.7 10 Nordeste 20 Nordeste 0 -- -- 85
2019-08-03 03:00:00 17.8 12 Nordeste 21 Nordeste 0 -- -- 84
2019-08-03 02:00:00 17.4 9 Nordeste 19 Nordeste 0 -- -- 83
2019-08-03 01:00:00 17.6 7 Nordeste 20 Nordeste 0 -- -- 80
2019-08-03 00:00:00 17.7 8 Nordeste 16 Norte 0 -- -- 79
2019-08-02 23:00:00 18.2 6 Nordeste 10 Nordeste 0 -- -- 76
2019-08-02 22:00:00 19 5 Nordeste 18 Nordeste 0 -- -- 74
2019-08-02 21:00:00 19.8 9 Nordeste 22 Este 0 -- -- 73
2019-08-02 20:00:00 21 14 Este 25 Nordeste 0 -- -- 74
2019-08-02 19:00:00 22.3 18 Este 30 Este 0 -- -- 69
2019-08-02 18:00:00 23.5 19 Nordeste 38 Este 0 -- -- 66
2019-08-02 17:00:00 23.8 21 Este 36 Nordeste 0 -- -- 64
2019-08-02 16:00:00 24.1 23 Nordeste 38 Este 0 -- -- 59
2019-08-02 15:00:00 24.1 25 Nordeste 40 Este 0 -- -- 63
2019-08-02 14:00:00 23.9 24 Nordeste 39 Nordeste 0 -- -- 63
2019-08-02 13:00:00 23.7 22 Nordeste 44 Este 0 -- -- 62
2019-08-02 12:00:00 22.4 21 Nordeste 35 Este 0 -- -- 69
2019-08-02 11:00:00 22.4 21 Nordeste 35 Este 0 -- -- 67
2019-08-02 10:00:00 21.6 16 Nordeste 28 Este 0 -- -- 66
2019-08-02 09:00:00 19.8 15 Nordeste 23 Nordeste 0 -- -- 72
2019-08-02 08:00:00 17.3 13 Norte 19 Nordeste 0 -- -- 81
2019-08-02 07:00:00 16.2 6 Noroeste 16 Norte 0 -- -- 82
2019-08-02 06:00:00 16.5 12 Norte 18 Norte 0 -- -- 85
2019-08-02 05:00:00 16.2 8 Norte 19 Norte 0 -- -- 83
2019-08-02 04:00:00 16.2 7 Noroeste 13 Norte 0 -- -- 81
2019-08-02 03:00:00 16.6 6 Norte 22 Nordeste 0 -- -- 84
2019-08-02 02:00:00 16.9 10 Nordeste 23 Nordeste 0 -- -- 85
2019-08-02 01:00:00 16.9 9 Norte 14 Nordeste 0 -- -- 85
2019-08-02 00:00:00 17.2 3 Noroeste 15 Nordeste 0 -- -- 86
2019-08-01 23:00:00 17.7 2 Oeste 12 Nordeste 0 -- -- 86
2019-08-01 22:00:00 18.3 2 Este 7 Este 0 -- -- 85
2019-08-01 21:00:00 19.2 5 Nordeste 21 Nordeste 0 -- -- 83
2019-08-01 20:00:00 20.7 12 Nordeste 23 Este 0 -- -- 77
2019-08-01 19:00:00 21.9 14 Nordeste 30 Este 0 -- -- 72
2019-08-01 18:00:00 21.5 21 Nordeste 33 Nordeste 0 -- -- 74
2019-08-01 17:00:00 21.6 18 Nordeste 32 Nordeste 0 -- -- 72
2019-08-01 16:00:00 22.5 21 Nordeste 35 Nordeste 0 -- -- 71
2019-08-01 15:00:00 22.9 22 Nordeste 42 Este 0 -- -- 69
2019-08-01 14:00:00 23.6 25 Nordeste 42 Nordeste 0 -- -- 63
2019-08-01 13:00:00 22.8 23 Nordeste 34 Nordeste 0 -- -- 63
2019-08-01 12:00:00 22.7 17 Este 32 Este 0 -- -- 66
2019-08-01 11:00:00 22.9 18 Nordeste 34 Nordeste 0 -- -- 63
2019-08-01 10:00:00 21.7 17 Nordeste 31 Nordeste 0 -- -- 63
2019-08-01 09:00:00 20.3 12 Nordeste 21 Nordeste 0 -- -- 72
2019-08-01 08:00:00 16.8 6 Noroeste 13 Nordeste 0 -- -- 74
2019-08-01 07:00:00 16.1 3 Norte 17 Oeste 0 -- -- 70
2019-08-01 06:00:00 15.9 6 Oeste 12 Oeste 0 -- -- 79
2019-08-01 05:00:00 16.1 6 Noroeste 13 Oeste 0 -- -- 73
2019-08-01 04:00:00 16.7 5 Nordeste 19 Oeste 0 -- -- 78
2019-08-01 03:00:00 17 15 Oeste 19 Oeste 0 -- -- 81
2019-08-01 02:00:00 17.4 9 Oeste 18 Oeste 0 -- -- 78
2019-08-01 01:00:00 17.4 5 Sudoeste 17 Sudoeste 0 -- -- 74
2019-08-01 00:00:00 18 13 Oeste 17 Oeste 0 -- -- 79
2019-07-31 23:00:00 18.5 10 Sudoeste 16 Oeste 0 -- -- 75
2019-07-31 22:00:00 19.3 10 Sudoeste 15 Sudoeste 0 -- -- 72
2019-07-31 21:00:00 20 6 Sudoeste 13 Sudeste 0 -- -- 69
2019-07-31 20:00:00 21.4 9 Este 26 Este 0 -- -- 64
2019-07-31 19:00:00 23.6 13 Este 26 Este 0 -- -- 56
2019-07-31 18:00:00 24.1 13 Este 31 Este 0 -- -- 54
2019-07-31 17:00:00 23.8 20 Este 38 Nordeste 0 -- -- 57
2019-07-31 16:00:00 23.7 23 Este 40 Este 0 -- -- 58
2019-07-31 15:00:00 23.4 23 Nordeste 47 Nordeste 0 -- -- 61
2019-07-31 14:00:00 23 30 Nordeste 47 Nordeste 0 -- -- 62
2019-07-31 13:00:00 24.2 22 Este 41 Este 0 -- -- 56
2019-07-31 12:00:00 24.1 21 Nordeste 36 Este 0 -- -- 55
2019-07-31 11:00:00 23 19 Este 31 Este 0 -- -- 57
2019-07-31 10:00:00 21.5 6 Este 18 Este 0 -- -- 65
2019-07-31 09:00:00 19.8 7 Sudoeste 20 Sudoeste 0 -- -- 71
2019-07-31 08:00:00 17.1 4 Noroeste 10 Noroeste 0 -- -- 78
2019-07-31 07:00:00 16.9 6 Noroeste 19 Oeste 0 -- -- 80
2019-07-31 06:00:00 18.1 11 Sudoeste 17 Sudoeste 0 -- -- 82
2019-07-31 05:00:00 17.8 10 Oeste 15 Oeste 0 -- -- 83
2019-07-31 04:00:00 17 5 Norte 17 Sudoeste 0 -- -- 82
2019-07-31 03:00:00 17.6 10 Sudoeste 18 Sudoeste 0 -- -- 81
2019-07-31 02:00:00 17.4 10 Oeste 13 Oeste 0 -- -- 81
2019-07-31 01:00:00 17.9 4 Sudoeste 9 Sudoeste 0 -- -- 78
2019-07-31 00:00:00 18.7 4 Sudoeste 8 Sudoeste 0 -- -- 76
2019-07-30 23:00:00 18.7 4 Sudoeste 10 Sudoeste 0 -- -- 75
2019-07-30 22:00:00 19.1 7 Oeste 11 Oeste 0 -- -- 73
2019-07-30 21:00:00 19.8 7 Nordeste 22 Este 0 -- -- 72
2019-07-30 20:00:00 21.9 13 Este 29 Este 0 -- -- 64
2019-07-30 19:00:00 22.9 19 Este 32 Este 0 -- -- 62
2019-07-30 18:00:00 23.5 15 Este 37 Este 0 -- -- 61
2019-07-30 17:00:00 24.1 23 Este 41 Este 0 -- -- 58
2019-07-30 16:00:00 25 21 Este 44 Nordeste 0 -- -- 58
2019-07-30 15:00:00 24.5 26 Nordeste 43 Nordeste 0 -- -- 60
2019-07-30 14:00:00 24.7 24 Nordeste 42 Nordeste 0 -- -- 59
2019-07-30 13:00:00 23.6 23 Nordeste 34 Este 0 -- -- 64
2019-07-30 12:00:00 23.2 16 Este 31 Nordeste 0 -- -- 68
2019-07-30 11:00:00 21.3 17 Este 26 Este 0 -- -- 76
2019-07-30 10:00:00 21.5 10 Este 21 Sudoeste 0 -- -- 75
2019-07-30 09:00:00 20.7 8 Sur 18 Sudoeste 0 -- -- 76
2019-07-30 08:00:00 19.1 7 Oeste 23 Sudoeste 0 -- -- 80
2019-07-30 07:00:00 18.7 12 Oeste 22 Este 0 -- -- 85
2019-07-30 06:00:00 18.7 11 Noroeste 23 Oeste 0 -- -- 73
2019-07-30 05:00:00 18.3 8 Noroeste 13 Noroeste 0 -- -- 77
2019-07-30 04:00:00 18.2 6 Noroeste 14 Nordeste 0 -- -- 78
2019-07-30 03:00:00 18.8 5 Noroeste 28 Nordeste 0 -- -- 76
2019-07-30 02:00:00 19 11 Nordeste 44 Nordeste 0 -- -- 78
2019-07-30 01:00:00 19.7 20 Nordeste 37 Nordeste 0 -- -- 76
2019-07-30 00:00:00 19.8 18 Nordeste 36 Nordeste 0 -- -- 78
2019-07-29 23:00:00 19.6 15 Nordeste 37 Nordeste 0 -- -- 82
2019-07-29 22:00:00 20 18 Nordeste 31 Nordeste 0 -- -- 75
2019-07-29 21:00:00 20.5 19 Nordeste 42 Nordeste 0 -- -- 72
2019-07-29 20:00:00 21.8 28 Nordeste 48 Nordeste 0 -- -- 64
2019-07-29 19:00:00 22.6 23 Nordeste 45 Nordeste 0 -- -- 65
2019-07-29 18:00:00 24.3 28 Nordeste 45 Nordeste 0 -- -- 53
2019-07-29 17:00:00 24.9 21 Nordeste 36 Nordeste 0 -- -- 56
2019-07-29 16:00:00 25.5 20 Nordeste 36 Nordeste 0 -- -- 55
2019-07-29 15:00:00 25.1 23 Nordeste 37 Este 0 -- -- 58
2019-07-29 14:00:00 24.7 21 Nordeste 42 Este 0 -- -- 61
2019-07-29 13:00:00 24.3 25 Nordeste 40 Este 0 -- -- 61
2019-07-29 12:00:00 24.1 25 Nordeste 40 Este 0 -- -- 57
2019-07-29 11:00:00 23.7 10 Nordeste 23 Este 0 -- -- 60
2019-07-29 10:00:00 21.6 8 Sudoeste 21 Sudoeste 0 -- -- 68
2019-07-29 09:00:00 20.4 5 Este 11 Este 0 -- -- 78
2019-07-29 08:00:00 18.3 2 Norte 20 Sudoeste 0 -- -- 86
2019-07-29 07:00:00 18.5 15 Sudoeste 24 Sudoeste 0 -- -- 86
2019-07-29 06:00:00 18.1 13 Sudoeste 21 Sudoeste 0 -- -- 87
2019-07-29 05:00:00 18.5 12 Sudoeste 24 Oeste 0 -- -- 85
2019-07-29 04:00:00 18.9 12 Sudoeste 17 Sudoeste 0 -- -- 84
2019-07-29 03:00:00 19 3 Sudoeste 8 Sudeste 0 -- -- 82
2019-07-29 02:00:00 18.9 3 Sudoeste 15 Sudoeste 0 -- -- 84
2019-07-29 01:00:00 18.7 3 Sudoeste 7 Oeste 0 -- -- 85
2019-07-29 00:00:00 19.3 4 Oeste 10 Sur 0 -- -- 82
2019-07-28 23:00:00 19.9 6 Sudoeste 13 Sudoeste 0 -- -- 81
2019-07-28 22:00:00 19.7 8 Sudoeste 13 Sur 0 -- -- 82
2019-07-28 21:00:00 20.5 7 Sudoeste 19 Sur 0 -- -- 80
2019-07-28 20:00:00 22.5 18 Sudoeste 26 Sudoeste 0 -- -- 74
2019-07-28 19:00:00 23.8 9 Sudeste 21 Este 0 -- -- 69
2019-07-28 18:00:00 23.5 13 Este 26 Este 0 -- -- 72
2019-07-28 17:00:00 24.3 13 Este 32 Este 0 -- -- 71
2019-07-28 16:00:00 24.6 23 Nordeste 36 Este 0 -- -- 70
2019-07-28 15:00:00 25.6 19 Nordeste 35 Este 0 -- -- 67
2019-07-28 14:00:00 25.6 22 Nordeste 36 Este 0 -- -- 66
2019-07-28 13:00:00 25.5 20 Nordeste 31 Este 0 -- -- 67
2019-07-28 12:00:00 23.1 23 Nordeste 33 Este 0 -- -- 77
2019-07-28 11:00:00 22.6 21 Nordeste 33 Nordeste 0 -- -- 79
2019-07-28 10:00:00 22.9 19 Nordeste 32 Nordeste 0 -- -- 74
2019-07-28 09:00:00 21.5 16 Nordeste 27 Nordeste 0 -- -- 77
2019-07-28 08:00:00 18.9 9 Nordeste 24 Nordeste 0 -- -- 85
2019-07-28 07:00:00 18.1 14 Nordeste 23 Nordeste 0 -- -- 88
2019-07-28 06:00:00 18.3 17 Nordeste 29 Nordeste 0 -- -- 90
2019-07-28 05:00:00 18.3 15 Nordeste 27 Nordeste 0 -- -- 89
2019-07-28 04:00:00 18.5 16 Nordeste 32 Norte 0 -- -- 89
2019-07-28 03:00:00 18.4 17 Nordeste 26 Nordeste 0 -- -- 90
2019-07-28 02:00:00 17.6 10 Nordeste 21 Nordeste 0 -- -- 80
2019-07-28 01:00:00 17.8 12 Nordeste 26 Nordeste 0 -- -- 81
2019-07-28 00:00:00 18.2 18 Nordeste 33 Nordeste 0 -- -- 84
2019-07-27 23:00:00 18.4 14 Nordeste 33 Nordeste 0 -- -- 79
2019-07-27 22:00:00 18.6 18 Nordeste 30 Nordeste 0 -- -- 82
2019-07-26 11:00:00 -- -- -- -- -- -- -- -- --
2019-07-26 10:00:00 23.9 11 Nordeste 19 Nordeste 0 -- -- 67
2019-07-26 09:00:00 20.7 12 Nordeste 22 Nordeste 0 -- -- 81
2019-07-26 08:00:00 18.3 7 Nordeste 14 Norte 0 -- -- 81
2019-07-26 07:00:00 18.1 10 Nordeste 31 Nordeste 0 -- -- 87
2019-07-26 06:00:00 19.2 18 Nordeste 31 Este 0 -- -- 79
2019-07-26 05:00:00 19.9 10 Nordeste 24 Nordeste 0 -- -- 70
2019-07-26 04:00:00 19.6 14 Nordeste 26 Nordeste 0 -- -- 75
2019-07-26 03:00:00 19 14 Nordeste 26 Nordeste 0 -- -- 89
2019-07-26 02:00:00 19.4 18 Nordeste 38 Nordeste 0 -- -- 84
2019-07-26 01:00:00 19.7 22 Nordeste 34 Nordeste 0 -- -- 80
2019-07-26 00:00:00 19.6 15 Nordeste 25 Nordeste 0 -- -- 76
2019-07-25 23:00:00 19.6 14 Nordeste 27 Nordeste 0 -- -- 78
2019-07-25 22:00:00 19.5 11 Nordeste 21 Nordeste 0 -- -- 83
2019-07-25 21:00:00 20.8 11 Nordeste 24 Nordeste 0 -- -- 73
2019-07-25 20:00:00 22.1 15 Nordeste 34 Nordeste 0 -- -- 69
2019-07-25 19:00:00 22.7 23 Nordeste 35 Nordeste 0 -- -- 71
2019-07-25 18:00:00 24 19 Nordeste 35 Este 0 -- -- 65
2019-07-25 17:00:00 26.2 25 Nordeste 36 Este 0 -- -- 50
2019-07-25 16:00:00 28.5 20 Nordeste 39 Nordeste 0 -- -- 40
2019-07-25 15:00:00 26.6 28 Nordeste 39 Este 0 -- -- 42
2019-07-25 14:00:00 27.7 26 Nordeste 40 Nordeste 0 -- -- 35
2019-07-25 13:00:00 27.8 27 Nordeste 40 Este 0 -- -- 31
2019-07-25 12:00:00 27.3 20 Nordeste 36 Nordeste 0 -- -- 32
2019-07-25 11:00:00 27.6 17 Nordeste 30 Nordeste 0 -- -- 32
2019-07-25 10:00:00 25.8 19 Nordeste 32 Nordeste 0 -- -- 30
2019-07-25 09:00:00 23.3 18 Nordeste 32 Nordeste 0 -- -- 35
2019-07-25 08:00:00 21.5 10 Nordeste 22 Norte 0 -- -- 37
2019-07-25 07:00:00 20.8 12 Norte 19 Norte 0 -- -- 38
2019-07-25 06:00:00 20.6 6 Norte 14 Nordeste 0 -- -- 38
2019-07-25 05:00:00 20.3 10 Norte 17 Norte 0 -- -- 39
2019-07-25 04:00:00 20.2 9 Norte 19 Nordeste 0 -- -- 42
2019-07-25 03:00:00 20.1 10 Nordeste 23 Norte 0 -- -- 46
2019-07-25 02:00:00 18.9 12 Noroeste 18 Noroeste 0 -- -- 56
2019-07-25 01:00:00 17.5 9 Norte 24 Nordeste 0 -- -- 77
2019-07-25 00:00:00 18.5 14 Nordeste 23 Nordeste 0 -- -- 83
2019-07-24 23:00:00 19 10 Nordeste 19 Nordeste 0 -- -- 76
2019-07-24 22:00:00 19.6 7 Nordeste 11 Nordeste 0 -- -- 74
2019-07-24 21:00:00 21.2 5 Nordeste 10 Este 0 -- -- 71
2019-07-24 20:00:00 24.8 8 Nordeste 12 Nordeste 0 -- -- 61
2019-07-24 19:00:00 24.8 7 Nordeste 18 Nordeste 0 -- -- 64
2019-07-24 18:00:00 25.3 13 Este 21 Este 0 -- -- 62
2019-07-24 17:00:00 26.2 14 Nordeste 24 Nordeste 0 -- -- 60
2019-07-24 16:00:00 27.2 13 Nordeste 23 Este 0 -- -- 56
2019-07-24 15:00:00 27.1 14 Nordeste 26 Nordeste 0 -- -- 55
2019-07-24 14:00:00 25.4 18 Este 33 Nordeste 0 -- -- 60
2019-07-24 13:00:00 24.8 22 Nordeste 36 Este 0 -- -- 63
2019-07-24 12:00:00 25.1 19 Nordeste 33 Este 0 -- -- 62
2019-07-24 11:00:00 23.7 16 Nordeste 34 Este 0 -- -- 67
2019-07-24 10:00:00 22.1 16 Este 25 Nordeste 0 -- -- 71
2019-07-24 09:00:00 20.5 12 Nordeste 19 Nordeste 0 -- -- 76
2019-07-24 08:00:00 17.9 10 Nordeste 19 Nordeste 0 -- -- 81
2019-07-24 07:00:00 17.4 5 Nordeste 13 Nordeste 0 -- -- 79
2019-07-24 06:00:00 17.2 6 Norte 20 Nordeste 0 -- -- 68
2019-07-24 05:00:00 16.7 6 Norte 17 Nordeste 0 -- -- 69
2019-07-24 04:00:00 17.2 5 Norte 12 Este 0 -- -- 76
2019-07-24 03:00:00 18.1 8 Norte 29 Nordeste 0 -- -- 71
2019-07-24 02:00:00 18.1 13 Nordeste 28 Nordeste 0 -- -- 76
2019-07-24 01:00:00 18 6 Norte 13 Noroeste 0 -- -- 67
2019-07-24 00:00:00 18.4 4 Norte 12 Norte 0 -- -- 67
2019-07-23 23:00:00 18.5 2 Sur 9 Nordeste 0 -- -- 66
2019-07-23 22:00:00 19.1 8 Noroeste 14 Noroeste 0 -- -- 67
2019-07-23 21:00:00 20.2 4 Nordeste 17 Este 0 -- -- 65
2019-07-23 20:00:00 22 11 Nordeste 28 Nordeste 0 -- -- 64
2019-07-23 19:00:00 23.5 12 Nordeste 26 Este 0 -- -- 62
2019-07-23 18:00:00 23.8 15 Nordeste 30 Este 0 -- -- 62
2019-07-23 17:00:00 24.5 18 Este 32 Nordeste 0 -- -- 60
2019-07-23 16:00:00 24.4 19 Nordeste 33 Este 0 -- -- 62
2019-07-23 15:00:00 24.9 19 Nordeste 38 Este 0 -- -- 59
2019-07-23 14:00:00 24 22 Nordeste 39 Nordeste 0 -- -- 62
2019-07-23 13:00:00 23.6 22 Nordeste 40 Este 0 -- -- 63
2019-07-23 12:00:00 23.9 19 Nordeste 31 Este 0 -- -- 63
2019-07-23 11:00:00 23.3 18 Este 31 Este 0 -- -- 60
2019-07-23 10:00:00 22.3 10 Nordeste 21 Este 0 -- -- 61
2019-07-23 09:00:00 20.2 3 Este 8 Noroeste 0 -- -- 68
2019-07-23 08:00:00 16.6 8 Noroeste 12 Noroeste 0 -- -- 78
2019-07-23 07:00:00 15.7 5 Norte 11 Noroeste 0 -- -- 83
2019-07-23 06:00:00 16.3 6 Oeste 16 Oeste 0 -- -- 84
2019-07-23 05:00:00 16.2 7 Nordeste 17 Oeste 0 -- -- 82
2019-07-23 04:00:00 16.2 3 Oeste 12 Oeste 0 -- -- 81
2019-07-23 03:00:00 16.6 5 Sudoeste 18 Sudoeste 0 -- -- 83
2019-07-23 02:00:00 17.1 12 Sudoeste 16 Sudoeste 0 -- -- 85
2019-07-23 01:00:00 17.3 4 Sudoeste 14 Oeste 0 -- -- 84
2019-07-23 00:00:00 17.1 12 Oeste 15 Oeste 0 -- -- 84
2019-07-22 23:00:00 17.6 2 Norte 6 Noroeste 0 -- -- 84
2019-07-22 22:00:00 18 6 Norte 19 Nordeste 0 -- -- 84
2019-07-22 21:00:00 19 13 Nordeste 24 Nordeste 0 -- -- 81
2019-07-22 20:00:00 20.6 17 Nordeste 28 Nordeste 0 -- -- 75
2019-07-22 19:00:00 22.4 17 Nordeste 28 Este 0 -- -- 69
2019-07-22 18:00:00 23.4 17 Este 30 Nordeste 0 -- -- 67
2019-07-22 17:00:00 24 20 Nordeste 33 Nordeste 0 -- -- 64
2019-07-22 16:00:00 24.4 21 Nordeste 33 Nordeste 0 -- -- 63
2019-07-22 15:00:00 24.3 20 Nordeste 39 Este 0 -- -- 62
2019-07-22 14:00:00 24.5 20 Nordeste 37 Nordeste 0 -- -- 62
2019-07-22 13:00:00 23.6 22 Nordeste 44 Nordeste 0 -- -- 63
2019-07-22 12:00:00 23.2 20 Nordeste 34 Este 0 -- -- 65
2019-07-22 11:00:00 22.5 19 Nordeste 33 Nordeste 0 -- -- 67
2019-07-22 10:00:00 21.5 18 Nordeste 33 Nordeste 0 -- -- 70
2019-07-22 09:00:00 19.6 14 Nordeste 25 Nordeste 0 -- -- 79
2019-07-22 08:00:00 17.2 13 Norte 19 Nordeste 0 -- -- 87
2019-07-22 07:00:00 16.7 9 Norte 19 Nordeste 0 -- -- 90
2019-07-22 06:00:00 16.7 9 Nordeste 17 Nordeste 0 -- -- 89
2019-07-22 05:00:00 17.6 12 Nordeste 25 Norte 0 -- -- 88
2019-07-22 04:00:00 18.1 17 Nordeste 29 Nordeste 0 -- -- 89
2019-07-22 03:00:00 18 13 Nordeste 24 Nordeste 0 -- -- 89
2019-07-22 02:00:00 18.5 14 Nordeste 22 Nordeste 0 -- -- 90
2019-07-22 01:00:00 18.5 13 Nordeste 27 Nordeste 0 -- -- 90
2019-07-22 00:00:00 18.6 18 Nordeste 26 Nordeste 0 -- -- 89
2019-07-21 23:00:00 18.7 18 Nordeste 27 Nordeste 0 -- -- 90
2019-07-21 22:00:00 18.7 18 Nordeste 32 Nordeste 0 -- -- 89
2019-07-21 21:00:00 19.1 19 Nordeste 33 Nordeste 0 -- -- 87
2019-07-21 20:00:00 20.4 22 Nordeste 34 Nordeste 0 -- -- 78
2019-07-21 19:00:00 21.8 23 Nordeste 40 Nordeste 0 -- -- 72
2019-07-21 18:00:00 22.7 23 Nordeste 41 Nordeste 0 -- -- 71
2019-07-21 17:00:00 23.3 27 Nordeste 41 Nordeste 0 -- -- 68
2019-07-21 16:00:00 23.6 25 Nordeste 45 Nordeste 0 -- -- 68
2019-07-21 15:00:00 23.9 27 Nordeste 41 Nordeste 0 -- -- 66
2019-07-21 14:00:00 23.6 27 Nordeste 43 Este 0 -- -- 67
2019-07-21 13:00:00 23.6 25 Nordeste 42 Nordeste 0 -- -- 67
2019-07-21 12:00:00 23 22 Nordeste 45 Este 0 -- -- 69
2019-07-21 11:00:00 21.8 24 Nordeste 42 Nordeste 0 -- -- 72
2019-07-21 10:00:00 20.1 21 Nordeste 34 Nordeste 0 -- -- 79
2019-07-21 09:00:00 19 18 Nordeste 32 Nordeste 0 -- -- 86
2019-07-21 08:00:00 17.2 9 Norte 19 Nordeste 0 -- -- 88
2019-07-21 07:00:00 17.5 13 Nordeste 24 Nordeste 0 -- -- 90
2019-07-21 06:00:00 17.6 15 Nordeste 31 Nordeste 0 -- -- 88
2019-07-21 05:00:00 18.1 20 Nordeste 35 Nordeste 0 -- -- 90
2019-07-21 04:00:00 18 21 Nordeste 34 Nordeste 0 -- -- 91
2019-07-21 03:00:00 18.1 22 Nordeste 35 Nordeste 0 -- -- 89
2019-07-21 02:00:00 18.2 18 Nordeste 33 Nordeste 0 -- -- 88
2019-07-21 01:00:00 18.6 20 Nordeste 40 Nordeste 0 -- -- 86
2019-07-21 00:00:00 19 23 Nordeste 37 Nordeste 0 -- -- 82